createdAt,value
2018-06-27T00:01:26.399Z,87.70
2018-06-27T00:03:54.921Z,88.10
2018-06-27T00:06:23.487Z,88.50
2018-06-27T00:08:51.970Z,89.00
2018-06-27T00:11:20.478Z,89.40
2018-06-27T00:13:48.915Z,89.70
2018-06-27T00:16:17.470Z,90.00
2018-06-27T00:18:46.065Z,90.30
2018-06-27T00:21:14.754Z,90.50
2018-06-27T00:23:43.256Z,90.50
2018-06-27T00:26:11.722Z,90.70
2018-06-27T00:28:40.201Z,90.60
2018-06-27T00:31:08.789Z,90.60
2018-06-27T00:33:37.389Z,90.60
2018-06-27T00:36:06.103Z,90.60
2018-06-27T00:38:34.672Z,90.60
2018-06-27T00:41:03.322Z,90.70
2018-06-27T00:43:31.878Z,90.70
2018-06-27T00:46:00.468Z,90.70
2018-06-27T00:48:28.970Z,91.00
2018-06-27T00:53:30.987Z,91.30
2018-06-27T00:55:59.498Z,91.40
2018-06-27T00:58:28.054Z,91.40
2018-06-27T01:00:56.614Z,91.50
2018-06-27T01:03:25.106Z,91.50
2018-06-27T01:05:53.623Z,91.50
2018-06-27T01:08:22.162Z,91.50
2018-06-27T01:10:50.730Z,91.40
2018-06-27T01:13:19.220Z,91.40
2018-06-27T01:15:47.898Z,91.40
2018-06-27T01:18:16.611Z,91.30
2018-06-27T01:23:13.372Z,91.80
2018-06-27T01:25:41.849Z,91.80
2018-06-27T01:28:10.782Z,91.60
2018-06-27T01:30:39.278Z,91.70
2018-06-27T01:33:07.734Z,92.10
2018-06-27T01:35:36.186Z,92.30
2018-06-27T01:38:04.794Z,92.20
2018-06-27T01:40:33.278Z,92.30
2018-06-27T01:43:01.829Z,92.20
2018-06-27T01:45:30.325Z,92.30
2018-06-27T01:50:27.134Z,92.40
2018-06-27T01:52:55.649Z,92.50
2018-06-27T01:55:24.166Z,92.60
2018-06-27T01:57:52.818Z,92.60
2018-06-27T02:00:21.422Z,92.70
2018-06-27T02:02:49.965Z,92.80
2018-06-27T02:05:18.462Z,93.00
2018-06-27T02:07:47.031Z,93.40
2018-06-27T02:10:15.579Z,93.70
2018-06-27T02:12:44.079Z,94.00
2018-06-27T02:15:12.787Z,94.20
2018-06-27T02:17:41.356Z,94.30
2018-06-27T02:20:09.906Z,94.40
2018-06-27T02:22:38.534Z,94.20
2018-06-27T02:25:07.172Z,93.90
2018-06-27T02:27:35.816Z,93.90
2018-06-27T02:30:04.403Z,94.40
2018-06-27T02:32:32.930Z,94.40
2018-06-27T02:35:01.414Z,94.50
2018-06-27T02:37:30.010Z,94.50
2018-06-27T02:39:58.556Z,94.60
2018-06-27T02:42:27.064Z,94.70
2018-06-27T02:44:55.596Z,94.80
2018-06-27T02:47:24.101Z,94.80
2018-06-27T02:49:52.594Z,94.80
2018-06-27T02:52:21.214Z,94.60
2018-06-27T02:54:49.784Z,94.80
2018-06-27T02:57:18.262Z,94.90
2018-06-27T02:59:46.830Z,95.00
2018-06-27T03:02:15.390Z,95.10
2018-06-27T03:04:43.914Z,95.40
2018-06-27T03:07:12.515Z,95.10
2018-06-27T03:12:09.214Z,95.80
2018-06-27T03:14:37.728Z,96.10
2018-06-27T03:17:06.270Z,96.20
2018-06-27T03:19:34.755Z,96.40
2018-06-27T03:22:03.515Z,96.40
2018-06-27T03:24:32.034Z,96.60
2018-06-27T03:27:00.525Z,96.70
2018-06-27T03:29:29.259Z,96.90
2018-06-27T03:31:57.717Z,97.10
2018-06-27T03:34:26.290Z,97.30
2018-06-27T03:36:54.887Z,97.30
2018-06-27T03:39:23.410Z,97.40
2018-06-27T03:41:52.038Z,97.50
2018-06-27T03:44:20.758Z,97.50
2018-06-27T03:46:49.299Z,97.40
2018-06-27T03:49:17.858Z,97.30
2018-06-27T03:51:46.399Z,97.40
2018-06-27T03:54:14.899Z,97.80
2018-06-27T03:56:43.398Z,97.70
2018-06-27T03:59:12.063Z,97.80
2018-06-27T04:01:40.589Z,97.80
2018-06-27T04:04:09.187Z,97.80
2018-06-27T04:06:37.856Z,97.80
2018-06-27T04:09:09.014Z,97.60
2018-06-27T04:11:37.561Z,97.40
2018-06-27T04:14:06.191Z,97.30
2018-06-27T04:16:34.711Z,97.10
2018-06-27T04:19:03.158Z,96.80
2018-06-27T04:21:31.661Z,96.80
2018-06-27T04:24:00.195Z,96.60
2018-06-27T04:26:28.792Z,96.40
2018-06-27T04:28:57.369Z,96.20
2018-06-27T04:31:25.858Z,96.40
2018-06-27T04:33:54.342Z,96.00
2018-06-27T04:36:22.913Z,95.90
2018-06-27T04:38:51.469Z,95.70
2018-06-27T04:41:19.950Z,95.50
2018-06-27T04:43:48.506Z,95.30
2018-06-27T04:46:16.974Z,95.00
2018-06-27T04:48:45.498Z,94.90
2018-06-27T04:51:14.046Z,94.70
2018-06-27T04:53:42.539Z,94.50
2018-06-27T04:56:11.844Z,94.30
2018-06-27T04:58:40.506Z,94.10
2018-06-27T05:01:09.325Z,94.00
2018-06-27T05:03:38.375Z,93.80
2018-06-27T05:06:06.975Z,93.60
2018-06-27T05:11:03.784Z,93.60
2018-06-27T05:13:32.326Z,93.30
2018-06-27T05:16:00.944Z,92.90
2018-06-27T05:18:29.434Z,92.80
2018-06-27T05:20:58.019Z,92.10
2018-06-27T05:23:26.582Z,91.70
2018-06-27T05:25:55.081Z,91.20
2018-06-27T05:28:23.786Z,90.60
2018-06-27T05:30:52.334Z,90.20
2018-06-27T05:33:20.950Z,90.00
2018-06-27T05:35:49.574Z,89.60
2018-06-27T05:38:18.038Z,89.60
2018-06-27T05:40:46.473Z,88.60
2018-06-27T05:43:15.046Z,87.80
2018-06-27T05:45:43.878Z,87.40
2018-06-27T05:48:12.382Z,86.20
2018-06-27T05:50:41.074Z,83.70
2018-06-27T05:53:09.588Z,83.80
2018-06-27T05:55:38.042Z,82.00
2018-06-27T05:58:06.570Z,82.00
2018-06-27T06:00:35.010Z,81.20
2018-06-27T06:03:03.458Z,79.70
2018-06-27T06:05:31.966Z,77.00
2018-06-27T06:08:00.409Z,75.20
2018-06-27T06:10:28.865Z,71.00
2018-06-27T06:12:57.376Z,65.70
2018-06-27T06:15:25.851Z,66.20
2018-06-27T06:17:54.855Z,66.00
2018-06-27T06:20:23.434Z,60.10
2018-06-27T06:25:20.128Z,59.20
2018-06-27T06:27:48.655Z,58.20
2018-06-27T06:30:17.162Z,58.40
2018-06-27T06:32:45.722Z,59.20
2018-06-27T06:35:14.238Z,58.90
2018-06-27T06:37:42.693Z,58.30
2018-06-27T06:40:11.230Z,58.00
2018-06-27T06:42:40.199Z,57.70
2018-06-27T06:45:08.611Z,57.20
2018-06-27T06:47:37.070Z,57.10
2018-06-27T06:50:05.587Z,56.70
2018-06-27T06:52:34.114Z,56.20
2018-06-27T06:57:31.465Z,56.10
2018-06-27T06:59:59.886Z,56.10
2018-06-27T07:02:28.347Z,55.60
2018-06-27T07:04:56.959Z,53.50
2018-06-27T07:07:25.379Z,53.60
2018-06-27T07:09:53.816Z,53.20
2018-06-27T07:12:22.355Z,52.50
2018-06-27T07:14:50.822Z,53.20
2018-06-27T07:17:19.282Z,54.00
2018-06-27T07:19:47.902Z,53.80
2018-06-27T07:22:16.515Z,54.10
2018-06-27T07:24:45.098Z,53.90
2018-06-27T07:27:13.858Z,54.00
2018-06-27T07:29:42.599Z,53.10
2018-06-27T07:32:11.060Z,53.40
2018-06-27T07:34:39.569Z,53.90
2018-06-27T07:37:08.148Z,53.60
2018-06-27T07:42:10.675Z,50.10
2018-06-27T07:44:39.403Z,49.10
2018-06-27T07:47:08.214Z,48.80
2018-06-27T07:49:36.774Z,48.70
2018-06-27T07:52:05.547Z,48.40
2018-06-27T07:54:41.979Z,48.30
2018-06-27T07:57:13.766Z,48.90
2018-06-27T07:59:42.667Z,47.80
2018-06-27T08:02:11.234Z,47.90
2018-06-27T08:04:39.789Z,46.90
2018-06-27T08:07:08.490Z,46.90
2018-06-27T08:09:37.250Z,47.00
2018-06-27T08:12:06.299Z,46.30
2018-06-27T08:14:35.647Z,45.60
2018-06-27T08:17:04.271Z,46.10
2018-06-27T08:19:32.981Z,46.40
2018-06-27T08:22:01.600Z,46.60
2018-06-27T08:24:30.236Z,46.90
2018-06-27T08:26:58.973Z,46.40
2018-06-27T08:29:28.054Z,46.00
2018-06-27T08:31:57.782Z,45.60
2018-06-27T08:34:28.131Z,45.90
2018-06-27T08:36:58.457Z,46.10
2018-06-27T08:39:28.545Z,45.70
2018-06-27T08:41:58.222Z,45.40
2018-06-27T08:44:27.224Z,45.90
2018-06-27T08:46:56.184Z,46.20
2018-06-27T08:49:25.153Z,45.90
2018-06-27T08:51:54.039Z,45.40
2018-06-27T08:54:23.017Z,46.20
2018-06-27T08:56:52.920Z,46.10
2018-06-27T08:59:23.014Z,44.90
2018-06-27T09:01:52.012Z,44.90
2018-06-27T09:04:21.251Z,44.20
2018-06-27T09:06:50.202Z,42.90
2018-06-27T09:09:19.122Z,42.80
2018-06-27T09:11:49.122Z,41.90
2018-06-27T09:14:18.090Z,41.80
2018-06-27T09:16:46.946Z,40.50
2018-06-27T09:19:15.830Z,40.40
2018-06-27T09:21:44.725Z,39.70
2018-06-27T09:24:13.580Z,39.20
2018-06-27T09:26:43.185Z,38.90
2018-06-27T09:29:12.930Z,39.00
2018-06-27T09:31:41.787Z,38.00
2018-06-27T09:34:10.966Z,37.80
2018-06-27T09:36:40.485Z,38.50
2018-06-27T09:39:10.930Z,38.30
2018-06-27T09:41:40.557Z,37.70
2018-06-27T09:44:09.651Z,38.10
2018-06-27T09:46:38.488Z,37.20
2018-06-27T09:49:07.381Z,37.00
2018-06-27T09:51:41.285Z,37.10
2018-06-27T09:54:11.920Z,36.60
2018-06-27T09:56:40.915Z,37.00
2018-06-27T09:59:12.676Z,35.70
2018-06-27T10:01:42.738Z,35.40
2018-06-27T10:04:11.659Z,35.70
2018-06-27T10:06:49.506Z,35.40
2018-06-27T10:09:18.438Z,36.30
2018-06-27T10:11:53.704Z,36.30
2018-06-27T10:14:23.693Z,36.10
2018-06-27T10:16:52.764Z,36.60
2018-06-27T10:19:21.686Z,35.50
2018-06-27T10:21:50.591Z,34.80
2018-06-27T10:24:19.706Z,35.40
2018-06-27T10:26:48.622Z,42.50
2018-06-27T10:29:17.663Z,44.90
2018-06-27T10:31:46.506Z,45.30
2018-06-27T10:34:15.479Z,46.30
2018-06-27T10:36:44.315Z,45.90
2018-06-27T10:39:13.267Z,46.20
2018-06-27T10:41:42.270Z,46.30
2018-06-27T10:44:11.604Z,45.80
2018-06-27T10:46:41.039Z,45.70
2018-06-27T10:49:10.494Z,45.00
2018-06-27T10:51:39.561Z,45.10
2018-06-27T10:54:08.834Z,45.90
2018-06-27T10:56:44.166Z,46.00
2018-06-27T10:59:13.081Z,47.50
2018-06-27T11:01:41.871Z,46.40
2018-06-27T11:06:39.701Z,47.20
2018-06-27T11:09:09.542Z,47.40
2018-06-27T11:11:40.200Z,47.60
2018-06-27T11:14:10.053Z,48.30
2018-06-27T11:16:38.938Z,47.00
2018-06-27T11:19:07.827Z,47.10
2018-06-27T11:21:36.802Z,46.70
2018-06-27T11:24:05.677Z,46.70
2018-06-27T11:26:34.754Z,46.10
2018-06-27T11:29:03.707Z,45.60
2018-06-27T11:31:32.646Z,45.30
2018-06-27T11:34:01.758Z,44.30
2018-06-27T11:36:30.731Z,45.90
2018-06-27T11:38:59.622Z,46.70
2018-06-27T11:41:28.666Z,46.90
2018-06-27T11:43:57.527Z,46.70
2018-06-27T11:46:27.796Z,46.30
2018-06-27T11:49:02.755Z,46.50
2018-06-27T11:51:31.691Z,46.30
2018-06-27T11:54:01.553Z,46.80
2018-06-27T11:56:30.878Z,47.00
2018-06-27T11:59:00.616Z,47.80
2018-06-27T12:01:29.545Z,47.40
2018-06-27T12:03:59.100Z,46.70
2018-06-27T12:06:33.797Z,46.70
2018-06-27T12:09:02.808Z,46.20
2018-06-27T12:11:33.297Z,46.10
2018-06-27T12:14:04.179Z,45.70
2018-06-27T12:16:33.101Z,45.20
2018-06-27T12:19:04.676Z,45.00
2018-06-27T12:21:33.842Z,45.00
2018-06-27T12:24:02.970Z,44.30
2018-06-27T12:26:32.477Z,43.50
2018-06-27T12:29:02.691Z,43.50
2018-06-27T12:31:33.510Z,42.90
2018-06-27T12:34:02.571Z,43.00
2018-06-27T12:36:32.709Z,43.10
2018-06-27T12:39:09.403Z,42.40
2018-06-27T12:42:10.451Z,42.10
2018-06-27T12:44:44.576Z,41.80
2018-06-27T12:47:14.415Z,41.30
2018-06-27T12:49:44.672Z,41.20
2018-06-27T12:52:14.719Z,41.80
2018-06-27T12:54:55.875Z,42.60
2018-06-27T12:57:28.922Z,42.90
2018-06-27T12:59:58.492Z,42.00
2018-06-27T13:03:47.283Z,42.00
2018-06-27T13:06:15.782Z,41.90
2018-06-27T13:08:44.302Z,40.90
2018-06-27T13:11:13.158Z,40.60
2018-06-27T13:13:41.634Z,40.90
2018-06-27T13:18:38.334Z,40.00
2018-06-27T13:21:06.872Z,40.20
2018-06-27T13:26:03.614Z,39.80
2018-06-27T13:28:32.179Z,39.70
2018-06-27T13:31:00.690Z,39.20
2018-06-27T13:33:29.242Z,37.20
2018-06-27T13:35:57.731Z,38.30
2018-06-27T13:38:26.214Z,39.20
2018-06-27T13:40:54.735Z,39.70
2018-06-27T13:45:51.434Z,40.00
2018-06-27T13:48:19.914Z,39.80
2018-06-27T13:50:48.403Z,38.70
2018-06-27T13:53:16.951Z,38.90
2018-06-27T13:55:45.486Z,40.40
2018-06-27T13:58:14.092Z,40.70
2018-06-27T14:00:42.595Z,41.20
2018-06-27T14:03:11.135Z,41.50
2018-06-27T14:05:39.610Z,41.90
2018-06-27T14:08:08.096Z,42.30
2018-06-27T14:10:36.947Z,42.60
2018-06-27T14:13:05.511Z,42.70
2018-06-27T14:15:34.019Z,42.20
2018-06-27T14:18:02.583Z,42.00
2018-06-27T14:20:31.053Z,41.10
2018-06-27T14:22:59.583Z,41.10
2018-06-27T14:25:28.070Z,40.80
2018-06-27T14:27:56.539Z,40.80
2018-06-27T14:30:25.090Z,40.20
2018-06-27T14:32:53.584Z,39.50
2018-06-27T14:35:22.949Z,39.60
2018-06-27T14:37:51.549Z,40.50
2018-06-27T14:40:19.981Z,40.80
2018-06-27T14:42:48.438Z,40.70
2018-06-27T14:45:16.923Z,41.30
2018-06-27T14:47:45.434Z,41.10
2018-06-27T14:50:13.924Z,40.70
2018-06-27T14:52:42.442Z,40.80
2018-06-27T14:55:10.906Z,40.90
2018-06-27T14:57:39.414Z,41.60
2018-06-27T15:00:09.236Z,40.90
2018-06-27T15:02:38.572Z,41.00
2018-06-27T15:05:07.135Z,41.10
2018-06-27T15:07:35.678Z,40.80
2018-06-27T15:10:04.266Z,40.50
2018-06-27T15:12:32.778Z,39.60
2018-06-27T15:15:01.359Z,39.50
2018-06-27T15:17:29.865Z,39.40
2018-06-27T15:19:58.383Z,39.20
2018-06-27T15:22:26.950Z,39.10
2018-06-27T15:24:55.555Z,39.10
2018-06-27T15:27:24.126Z,39.40
2018-06-27T15:29:52.667Z,39.80
2018-06-27T15:32:22.835Z,40.10
2018-06-27T15:34:51.761Z,39.90
2018-06-27T15:37:20.371Z,40.10
2018-06-27T15:39:48.882Z,39.00
2018-06-27T15:42:17.382Z,39.00
2018-06-27T15:47:14.020Z,38.20
2018-06-27T15:49:42.575Z,38.50
2018-06-27T15:52:11.098Z,38.10
2018-06-27T15:54:39.638Z,37.80
2018-06-27T15:57:08.218Z,37.70
2018-06-27T15:59:37.081Z,36.60
2018-06-27T16:02:05.667Z,36.20
2018-06-27T16:04:34.214Z,35.70
2018-06-27T16:07:02.718Z,35.10
2018-06-27T16:11:59.439Z,34.20
2018-06-27T16:14:27.946Z,33.80
2018-06-27T16:16:56.622Z,33.10
2018-06-27T16:19:25.090Z,32.80
2018-06-27T16:21:53.574Z,32.50
2018-06-27T16:24:22.136Z,32.50
2018-06-27T16:26:50.632Z,32.70
2018-06-27T16:29:19.111Z,32.00
2018-06-27T16:31:47.660Z,31.50
2018-06-27T16:34:16.153Z,31.30
2018-06-27T16:36:44.682Z,30.90
2018-06-27T16:39:13.228Z,30.70
2018-06-27T16:41:41.726Z,30.50
2018-06-27T16:44:10.415Z,30.10
2018-06-27T16:46:39.023Z,30.10
2018-06-27T16:49:08.081Z,30.40
2018-06-27T16:51:36.746Z,30.90
2018-06-27T16:54:05.518Z,31.10
2018-06-27T16:56:34.119Z,31.10
2018-06-27T16:59:02.826Z,31.60
2018-06-27T17:01:31.522Z,32.10
2018-06-27T17:03:59.778Z,31.50
2018-06-27T17:08:56.446Z,30.00
2018-06-27T17:11:24.919Z,29.50
2018-06-27T17:16:21.678Z,28.60
2018-06-27T17:21:18.430Z,28.50
2018-06-27T17:23:46.957Z,28.50
2018-06-27T17:26:15.454Z,28.90
2018-06-27T17:28:43.961Z,28.70
2018-06-27T17:31:12.443Z,28.90
2018-06-27T17:33:40.889Z,29.20
2018-06-27T17:36:09.375Z,29.20
2018-06-27T17:38:38.276Z,29.40
2018-06-27T17:41:06.849Z,29.60
2018-06-27T17:43:35.283Z,29.40
2018-06-27T17:46:03.823Z,29.50
2018-06-27T17:48:32.414Z,29.40
2018-06-27T17:51:00.962Z,29.40
2018-06-27T17:53:29.496Z,29.10
2018-06-27T17:55:58.038Z,29.00
2018-06-27T17:58:26.614Z,28.80
2018-06-27T18:03:23.313Z,29.40
2018-06-27T18:05:51.799Z,30.00
2018-06-27T18:08:20.303Z,30.90
2018-06-27T18:10:48.932Z,32.40
2018-06-27T18:13:17.411Z,34.70
2018-06-27T18:15:46.527Z,36.60
2018-06-27T18:18:15.226Z,38.30
2018-06-27T18:20:43.723Z,40.10
2018-06-27T18:23:12.234Z,40.90
2018-06-27T18:25:40.699Z,41.90
2018-06-27T18:28:09.183Z,43.00
2018-06-27T18:30:37.682Z,44.50
2018-06-27T18:33:06.138Z,44.30
2018-06-27T18:35:34.675Z,44.90
2018-06-27T18:38:03.306Z,45.10
2018-06-27T18:40:32.124Z,45.50
2018-06-27T18:43:01.442Z,46.00
2018-06-27T18:45:30.516Z,46.70
2018-06-27T18:47:59.039Z,47.00
2018-06-27T18:50:27.587Z,47.60
2018-06-27T18:52:56.115Z,48.60
2018-06-27T18:55:24.623Z,49.40
2018-06-27T18:57:53.088Z,49.90
2018-06-27T19:00:21.591Z,50.30
2018-06-27T19:02:50.088Z,50.60
2018-06-27T19:05:18.799Z,50.80
2018-06-27T19:07:47.528Z,50.80
2018-06-27T19:10:16.830Z,50.80
2018-06-27T19:12:45.339Z,50.60
2018-06-27T19:15:13.871Z,50.80
2018-06-27T19:17:42.334Z,51.10
2018-06-27T19:20:10.807Z,51.20
2018-06-27T19:22:39.438Z,51.40
2018-06-27T19:25:09.743Z,51.60
2018-06-27T19:27:38.427Z,51.80
2018-06-27T19:30:07.426Z,52.10
2018-06-27T19:32:36.039Z,52.70
2018-06-27T19:35:04.870Z,53.20
2018-06-27T19:37:33.492Z,53.80
2018-06-27T19:40:01.987Z,54.30
2018-06-27T19:42:30.480Z,54.80
2018-06-27T19:44:59.419Z,55.30
2018-06-27T19:47:28.274Z,55.80
2018-06-27T19:49:56.829Z,56.20
2018-06-27T19:52:25.396Z,56.40
2018-06-27T19:54:53.862Z,56.60
2018-06-27T19:57:22.552Z,56.70
2018-06-27T19:59:51.060Z,56.70
2018-06-27T20:02:19.626Z,56.70
2018-06-27T20:04:48.411Z,57.10
2018-06-27T20:07:19.235Z,57.60
2018-06-27T20:09:48.345Z,58.00
2018-06-27T20:12:16.995Z,58.30
2018-06-27T20:14:45.562Z,58.60
2018-06-27T20:17:14.053Z,59.10
2018-06-27T20:19:43.122Z,59.30
2018-06-27T20:22:11.753Z,59.40
2018-06-27T20:24:40.234Z,59.10
2018-06-27T20:27:08.735Z,59.20
2018-06-27T20:29:37.227Z,59.20
2018-06-27T20:32:05.791Z,59.10
2018-06-27T20:34:34.276Z,59.40
2018-06-27T20:37:02.743Z,59.50
2018-06-27T20:39:31.239Z,59.70
2018-06-27T20:41:59.791Z,60.20
2018-06-27T20:44:28.339Z,60.10
2018-06-27T20:46:56.907Z,61.00
2018-06-27T20:49:25.454Z,60.80
2018-06-27T20:51:55.068Z,60.80
2018-06-27T20:59:20.061Z,62.40
2018-06-27T21:01:49.098Z,62.80
2018-06-27T21:04:17.603Z,64.20
2018-06-27T21:06:46.043Z,64.00
2018-06-27T21:09:15.271Z,64.40
2018-06-27T21:11:43.904Z,65.10
2018-06-27T21:20:56.431Z,66.00
2018-06-27T21:23:25.059Z,67.00
2018-06-27T21:25:53.658Z,67.30
2018-06-27T21:28:22.070Z,67.90
2018-06-27T21:33:18.781Z,68.60
2018-06-27T21:35:47.254Z,68.50
2018-06-27T21:38:15.712Z,68.80
2018-06-27T21:40:44.170Z,69.50
2018-06-27T21:43:12.734Z,69.80
2018-06-27T21:45:41.190Z,69.90
2018-06-27T21:48:09.683Z,70.10
2018-06-27T21:50:38.330Z,71.10
2018-06-27T21:53:06.745Z,71.20
2018-06-27T21:55:35.195Z,72.00
2018-06-27T21:58:03.705Z,71.90
2018-06-27T22:00:32.737Z,72.00
2018-06-27T22:03:01.874Z,72.50
2018-06-27T22:05:30.339Z,72.80
2018-06-27T22:07:58.923Z,72.80
2018-06-27T22:10:27.474Z,73.00
2018-06-27T22:12:56.012Z,73.60
2018-06-27T22:15:24.460Z,73.30
2018-06-27T22:17:52.921Z,73.60
2018-06-27T22:20:21.378Z,73.80
2018-06-27T22:22:49.830Z,74.40
2018-06-27T22:25:18.342Z,74.50
2018-06-27T22:27:46.790Z,75.00
2018-06-27T22:30:15.270Z,75.20
2018-06-27T22:32:43.823Z,75.80
2018-06-27T22:35:12.427Z,76.00
2018-06-27T22:37:40.951Z,76.10
2018-06-27T22:40:09.594Z,76.30
2018-06-27T22:42:38.176Z,76.30
2018-06-27T22:45:06.730Z,76.70
2018-06-27T22:47:35.243Z,76.90
2018-06-27T22:50:03.831Z,77.00
2018-06-27T22:52:32.352Z,76.70
2018-06-27T22:55:00.834Z,76.90
2018-06-27T22:57:29.482Z,77.10
2018-06-27T22:59:58.071Z,77.60
2018-06-27T23:02:26.749Z,78.60
2018-06-27T23:04:55.183Z,79.10
2018-06-27T23:07:23.646Z,79.30
2018-06-27T23:09:52.544Z,79.60
2018-06-27T23:12:21.027Z,79.40
2018-06-27T23:14:49.501Z,79.70
2018-06-27T23:17:17.978Z,80.00
2018-06-27T23:19:46.415Z,80.00
2018-06-27T23:22:25.950Z,80.70
2018-06-27T23:24:54.622Z,80.70
2018-06-27T23:27:23.191Z,81.00
2018-06-27T23:32:19.942Z,82.30
2018-06-27T23:34:48.382Z,82.50
2018-06-27T23:37:16.943Z,82.30
2018-06-27T23:39:53.690Z,82.00
2018-06-27T23:42:22.239Z,81.70
2018-06-27T23:44:50.754Z,81.40
2018-06-27T23:47:19.402Z,81.20
2018-06-27T23:49:47.964Z,82.20
2018-06-27T23:52:16.636Z,82.40
2018-06-27T23:54:45.123Z,82.30
2018-06-27T23:57:13.640Z,82.30
2018-06-27T23:59:42.190Z,82.60
